createdAt,value
2023-01-18T00:01:16.717Z,4.96
2023-01-18T00:03:43.868Z,5.04
2023-01-18T00:06:11.805Z,5.16
2023-01-18T00:08:40.244Z,5.19
2023-01-18T00:11:12.666Z,5.21
2023-01-18T00:13:40.052Z,5.15
2023-01-18T00:16:11.417Z,5.24
2023-01-18T00:18:38.562Z,5.26
2023-01-18T00:21:11.137Z,5.33
2023-01-18T00:23:38.737Z,5.31
2023-01-18T00:26:08.171Z,5.22
2023-01-18T00:28:36.114Z,5.35
2023-01-18T00:31:10.178Z,5.38
2023-01-18T00:33:37.609Z,5.52
2023-01-18T00:36:05.335Z,5.52
2023-01-18T00:38:32.319Z,5.56
2023-01-18T00:40:59.514Z,5.65
2023-01-18T00:43:41.790Z,5.64
2023-01-18T00:46:15.079Z,5.66
2023-01-18T00:48:44.233Z,5.64
2023-01-18T00:51:16.329Z,5.71
2023-01-18T00:53:44.464Z,5.77
2023-01-18T00:56:14.368Z,5.78
2023-01-18T00:58:41.719Z,5.86
2023-01-18T01:01:10.290Z,5.97
2023-01-18T01:03:57.185Z,5.97
2023-01-18T01:06:47.038Z,6.01
2023-01-18T01:09:21.802Z,5.93
2023-01-18T01:12:08.157Z,6.04
2023-01-18T01:14:56.727Z,6.08
2023-01-18T01:17:42.373Z,6.04
2023-01-18T01:20:28.786Z,6.08
2023-01-18T01:23:14.366Z,6.04
2023-01-18T01:26:00.585Z,6.12
2023-01-18T01:28:27.512Z,6.08
2023-01-18T01:31:02.488Z,6.14
2023-01-18T01:33:30.694Z,6.06
2023-01-18T01:35:59.681Z,6.08
2023-01-18T01:38:27.275Z,6.10
2023-01-18T01:41:06.939Z,6.10
2023-01-18T01:43:49.115Z,6.11
2023-01-18T01:46:38.241Z,6.12
2023-01-18T01:49:08.800Z,6.16
2023-01-18T01:51:39.947Z,6.16
2023-01-18T01:54:13.455Z,6.16
2023-01-18T01:56:42.232Z,6.19
2023-01-18T01:59:10.433Z,6.13
2023-01-18T02:01:39.181Z,6.14
2023-01-18T02:04:06.399Z,6.08
2023-01-18T02:06:36.883Z,6.03
2023-01-18T02:09:08.456Z,6.12
2023-01-18T02:11:36.338Z,6.14
2023-01-18T02:14:08.657Z,6.08
2023-01-18T02:17:11.091Z,6.08
2023-01-18T02:20:19.725Z,6.06
2023-01-18T02:23:20.256Z,6.11
2023-01-18T02:26:08.552Z,6.15
2023-01-18T02:28:37.803Z,6.12
2023-01-18T02:31:04.860Z,6.11
2023-01-18T02:33:47.105Z,6.13
2023-01-18T02:36:27.761Z,6.16
2023-01-18T02:39:00.433Z,6.22
2023-01-18T02:41:55.072Z,6.20
2023-01-18T02:44:49.015Z,6.16
2023-01-18T02:47:16.682Z,6.13
2023-01-18T02:49:43.626Z,6.19
2023-01-18T02:52:39.681Z,6.22
2023-01-18T02:55:14.418Z,6.22
2023-01-18T02:57:41.319Z,6.18
2023-01-18T03:00:11.643Z,6.24
2023-01-18T03:02:40.978Z,6.16
2023-01-18T03:05:10.719Z,6.24
2023-01-18T03:07:54.955Z,6.22
2023-01-18T03:10:26.192Z,6.20
2023-01-18T03:13:05.886Z,6.22
2023-01-18T03:15:43.211Z,6.22
2023-01-18T03:18:37.268Z,6.30
2023-01-18T03:21:08.226Z,6.35
2023-01-18T03:23:40.111Z,6.35
2023-01-18T03:26:08.785Z,6.36
2023-01-18T03:29:02.509Z,6.44
2023-01-18T03:31:57.714Z,6.50
2023-01-18T03:34:32.739Z,6.54
2023-01-18T03:37:08.447Z,6.53
2023-01-18T03:39:39.264Z,6.57
2023-01-18T03:42:20.050Z,6.57
2023-01-18T03:44:56.434Z,6.66
2023-01-18T03:47:23.488Z,6.71
2023-01-18T03:49:50.983Z,6.77
2023-01-18T03:52:29.165Z,6.73
2023-01-18T03:55:21.527Z,6.84
2023-01-18T03:57:56.128Z,6.87
2023-01-18T04:00:23.349Z,6.92
2023-01-18T04:02:50.819Z,6.85
2023-01-18T04:05:19.038Z,6.87
2023-01-18T04:07:45.990Z,6.91
2023-01-18T04:10:13.002Z,6.99
2023-01-18T04:12:39.945Z,6.89
2023-01-18T04:15:07.412Z,6.89
2023-01-18T04:17:34.325Z,6.92
2023-01-18T04:20:01.345Z,6.86
2023-01-18T04:22:28.250Z,6.96
2023-01-18T04:24:55.177Z,6.93
2023-01-18T04:27:24.348Z,6.90
2023-01-18T04:29:52.220Z,6.90
2023-01-18T04:32:19.150Z,6.89
2023-01-18T04:34:46.052Z,6.93
2023-01-18T04:37:12.912Z,6.98
2023-01-18T04:39:39.970Z,6.97
2023-01-18T04:42:07.133Z,6.92
2023-01-18T04:44:34.194Z,6.92
2023-01-18T04:47:01.304Z,6.90
2023-01-18T04:49:28.765Z,6.88
2023-01-18T04:51:55.934Z,6.89
2023-01-18T04:54:23.603Z,6.84
2023-01-18T04:56:52.169Z,6.85
2023-01-18T04:59:19.392Z,6.88
2023-01-18T05:01:46.901Z,6.89
2023-01-18T05:04:14.819Z,6.78
2023-01-18T05:06:42.239Z,6.85
2023-01-18T05:09:12.648Z,6.89
2023-01-18T05:11:39.993Z,6.82
2023-01-18T05:14:07.449Z,6.85
2023-01-18T05:16:35.242Z,6.87
2023-01-18T05:19:02.656Z,6.90
2023-01-18T05:21:30.093Z,6.84
2023-01-18T05:23:57.415Z,6.88
2023-01-18T05:26:25.056Z,6.90
2023-01-18T05:28:58.090Z,6.91
2023-01-18T05:31:26.201Z,6.98
2023-01-18T05:33:53.581Z,7.01
2023-01-18T05:36:20.783Z,6.95
2023-01-18T05:38:48.081Z,6.97
2023-01-18T05:41:15.656Z,6.98
2023-01-18T05:43:42.937Z,6.98
2023-01-18T05:46:10.715Z,6.99
2023-01-18T05:48:38.251Z,6.95
2023-01-18T05:51:10.561Z,7.05
2023-01-18T05:53:38.736Z,7.01
2023-01-18T05:56:08.488Z,7.06
2023-01-18T05:58:36.107Z,7.03
2023-01-18T06:01:03.849Z,7.12
2023-01-18T06:03:31.577Z,7.07
2023-01-18T06:05:59.625Z,7.09
2023-01-18T06:08:26.897Z,7.13
2023-01-18T06:10:59.731Z,7.14
2023-01-18T06:13:29.646Z,7.14
2023-01-18T06:15:58.511Z,7.23
2023-01-18T06:18:27.541Z,7.20
2023-01-18T06:21:01.192Z,7.24
2023-01-18T06:23:30.202Z,7.23
2023-01-18T06:25:57.992Z,7.27
2023-01-18T06:28:25.615Z,7.31
2023-01-18T06:30:55.293Z,7.33
2023-01-18T06:33:24.430Z,7.40
2023-01-18T06:35:53.064Z,7.42
2023-01-18T06:38:21.242Z,7.46
2023-01-18T06:40:48.542Z,7.50
2023-01-18T06:43:17.795Z,7.56
2023-01-18T06:45:46.346Z,7.53
2023-01-18T06:48:13.625Z,7.63
2023-01-18T06:50:41.151Z,7.64
2023-01-18T06:53:08.547Z,7.66
2023-01-18T06:55:36.202Z,7.73
2023-01-18T06:58:03.709Z,7.73
2023-01-18T07:00:31.416Z,7.78
2023-01-18T07:02:59.340Z,7.77
2023-01-18T07:05:27.005Z,7.82
2023-01-18T07:07:53.992Z,7.80
2023-01-18T07:10:21.136Z,7.90
2023-01-18T07:12:49.062Z,7.91
2023-01-18T07:15:21.977Z,7.93
2023-01-18T07:17:51.058Z,8.01
2023-01-18T07:20:20.130Z,8.06
2023-01-18T07:22:52.257Z,8.01
2023-01-18T07:25:21.492Z,8.07
2023-01-18T07:27:49.712Z,8.06
2023-01-18T07:30:17.900Z,8.10
2023-01-18T07:32:49.935Z,8.11
2023-01-18T07:35:20.494Z,8.13
2023-01-18T07:37:53.508Z,8.19
2023-01-18T07:40:22.122Z,8.27
2023-01-18T07:42:56.399Z,8.31
2023-01-18T07:45:24.286Z,8.28
2023-01-18T07:47:53.707Z,8.23
2023-01-18T07:50:22.819Z,8.21
2023-01-18T07:52:50.264Z,8.28
2023-01-18T07:55:17.621Z,8.28
2023-01-18T07:57:45.208Z,8.39
2023-01-18T08:00:14.759Z,8.40
2023-01-18T08:02:42.181Z,8.39
2023-01-18T08:05:10.822Z,8.38
2023-01-18T08:07:38.197Z,8.46
2023-01-18T08:10:06.182Z,8.45
2023-01-18T08:12:33.536Z,8.48
2023-01-18T08:15:00.956Z,8.54
2023-01-18T08:17:29.971Z,8.57
2023-01-18T08:19:57.787Z,8.64
2023-01-18T08:22:25.193Z,8.60
2023-01-18T08:24:53.011Z,8.67
2023-01-18T08:27:20.551Z,8.74
2023-01-18T08:29:48.347Z,8.72
2023-01-18T08:32:16.020Z,8.81
2023-01-18T08:34:43.737Z,8.82
2023-01-18T08:37:12.227Z,8.87
2023-01-18T08:39:39.563Z,8.87
2023-01-18T08:42:06.799Z,8.96
2023-01-18T08:44:33.987Z,9.04
2023-01-18T08:47:01.876Z,9.11
2023-01-18T08:49:29.781Z,9.17
2023-01-18T08:51:58.379Z,9.20
2023-01-18T08:54:26.063Z,9.32
2023-01-18T08:56:53.683Z,9.29
2023-01-18T08:59:21.373Z,9.30
2023-01-18T09:01:49.426Z,9.39
2023-01-18T09:04:17.150Z,9.43
2023-01-18T09:06:45.005Z,9.50
2023-01-18T09:09:13.281Z,9.49
2023-01-18T09:11:40.430Z,9.56
2023-01-18T09:14:07.870Z,9.75
2023-01-18T09:16:35.307Z,9.79
2023-01-18T09:19:06.642Z,9.82
2023-01-18T09:21:34.725Z,9.92
2023-01-18T09:24:02.512Z,9.94
2023-01-18T09:26:30.794Z,10.14
2023-01-18T09:28:58.390Z,10.11
2023-01-18T09:31:28.053Z,10.19
2023-01-18T09:34:00.975Z,10.28
2023-01-18T09:36:41.485Z,10.30
2023-01-18T09:39:08.901Z,10.44
2023-01-18T09:41:52.782Z,10.54
2023-01-18T09:44:32.455Z,10.60
2023-01-18T09:47:07.808Z,10.67
2023-01-18T09:49:55.601Z,10.63
2023-01-18T09:52:32.270Z,10.56
2023-01-18T09:55:28.933Z,10.48
2023-01-18T09:57:59.513Z,10.41
2023-01-18T10:00:30.042Z,10.40
2023-01-18T10:03:03.613Z,10.42
2023-01-18T10:05:40.412Z,10.27
2023-01-18T10:08:15.747Z,10.27
2023-01-18T10:11:09.893Z,10.34
2023-01-18T10:13:46.056Z,10.29
2023-01-18T10:16:15.152Z,10.28
2023-01-18T10:18:45.969Z,10.31
2023-01-18T10:21:23.014Z,10.34
2023-01-18T10:24:01.805Z,10.36
2023-01-18T10:26:35.550Z,10.33
2023-01-18T10:29:33.652Z,10.24
2023-01-18T10:32:08.614Z,10.32
2023-01-18T10:34:39.536Z,10.33
2023-01-18T10:37:28.022Z,10.43
2023-01-18T10:40:05.164Z,10.28
2023-01-18T10:42:51.716Z,10.44
2023-01-18T10:45:22.940Z,10.42
2023-01-18T10:47:53.216Z,10.44
2023-01-18T10:50:20.597Z,10.36
2023-01-18T10:52:48.159Z,10.14
2023-01-18T10:55:22.206Z,10.19
2023-01-18T10:57:53.821Z,10.11
2023-01-18T11:00:34.133Z,9.99
2023-01-18T11:03:04.389Z,10.06
2023-01-18T11:05:35.175Z,10.08
2023-01-18T11:08:32.171Z,10.03
2023-01-18T11:10:59.523Z,9.95
2023-01-18T11:13:48.515Z,9.97
2023-01-18T11:16:22.668Z,9.89
2023-01-18T11:19:04.552Z,9.93
2023-01-18T11:21:43.568Z,9.91
2023-01-18T11:24:20.849Z,9.91
2023-01-18T11:27:01.956Z,9.77
2023-01-18T11:29:33.116Z,9.86
2023-01-18T11:32:19.413Z,9.78
2023-01-18T11:34:51.930Z,9.81
2023-01-18T11:37:29.025Z,9.77
2023-01-18T11:39:57.466Z,9.80
2023-01-18T11:42:36.884Z,9.79
2023-01-18T11:45:20.067Z,9.69
2023-01-18T11:48:05.953Z,9.76
2023-01-18T11:50:43.783Z,9.68
2023-01-18T11:53:13.908Z,9.64
2023-01-18T11:55:58.146Z,9.65
2023-01-18T11:58:32.347Z,9.66
2023-01-18T12:01:08.080Z,9.57
2023-01-18T12:03:47.867Z,9.68
2023-01-18T12:06:56.392Z,9.73
2023-01-18T12:09:42.346Z,9.66
2023-01-18T12:12:34.372Z,9.79
2023-01-18T12:15:26.065Z,9.86
2023-01-18T12:18:20.832Z,9.79
2023-01-18T12:20:52.182Z,9.78
2023-01-18T12:23:53.401Z,9.65
2023-01-18T12:26:54.819Z,9.78
2023-01-18T12:29:30.837Z,9.78
2023-01-18T12:32:16.568Z,9.80
2023-01-18T12:35:24.622Z,9.79
2023-01-18T12:38:11.007Z,9.71
2023-01-18T12:40:42.870Z,9.71
2023-01-18T12:43:44.852Z,9.73
2023-01-18T12:46:20.169Z,9.66
2023-01-18T12:49:17.546Z,9.69
2023-01-18T12:51:53.286Z,9.69
2023-01-18T12:54:34.600Z,9.69
2023-01-18T12:57:04.424Z,9.73
2023-01-18T12:59:34.383Z,9.71
2023-01-18T13:02:13.154Z,9.83
2023-01-18T13:04:49.946Z,9.72
2023-01-18T13:07:25.590Z,9.71
2023-01-18T13:09:53.833Z,9.75
2023-01-18T13:12:21.236Z,9.75
2023-01-18T13:15:18.001Z,9.77
2023-01-18T13:18:17.171Z,9.74
2023-01-18T13:21:07.610Z,9.76
2023-01-18T13:23:50.666Z,9.80
2023-01-18T13:26:22.400Z,9.81
2023-01-18T13:29:16.717Z,9.87
2023-01-18T13:31:45.138Z,9.81
2023-01-18T13:34:47.994Z,9.95
2023-01-18T13:37:38.312Z,9.96
2023-01-18T13:40:07.390Z,9.97
2023-01-18T13:42:41.210Z,9.96
2023-01-18T13:45:26.569Z,9.97
2023-01-18T13:47:55.644Z,9.90
2023-01-18T13:50:29.066Z,9.93
2023-01-18T13:53:19.283Z,9.98
2023-01-18T13:55:46.353Z,9.96
2023-01-18T13:58:26.889Z,9.94
2023-01-18T14:00:58.742Z,9.93
2023-01-18T14:03:29.564Z,9.93
2023-01-18T14:05:58.817Z,9.82
2023-01-18T14:08:32.875Z,9.87
2023-01-18T14:11:10.421Z,9.91
2023-01-18T14:13:48.002Z,9.81
2023-01-18T14:16:30.879Z,9.90
2023-01-18T14:19:04.181Z,9.93
2023-01-18T14:21:49.911Z,9.97
2023-01-18T14:24:41.795Z,9.95
2023-01-18T14:27:17.337Z,10.00
2023-01-18T14:30:03.232Z,10.01
2023-01-18T14:32:37.951Z,9.86
2023-01-18T14:35:18.772Z,9.89
2023-01-18T14:37:45.997Z,10.01
2023-01-18T14:40:21.451Z,10.03
2023-01-18T14:42:53.834Z,10.03
2023-01-18T14:45:29.566Z,9.95
2023-01-18T14:48:01.950Z,9.90
2023-01-18T14:50:34.595Z,9.92
2023-01-18T14:53:01.886Z,9.97
2023-01-18T14:55:34.418Z,9.99
2023-01-18T14:58:09.128Z,10.01
2023-01-18T15:00:44.346Z,9.96
2023-01-18T15:03:23.893Z,9.97
2023-01-18T15:05:58.021Z,9.96
2023-01-18T15:08:29.256Z,9.98
2023-01-18T15:10:57.848Z,10.00
2023-01-18T15:13:29.489Z,10.01
2023-01-18T15:16:02.281Z,9.94
2023-01-18T15:18:29.630Z,9.94
2023-01-18T15:21:10.766Z,9.93
2023-01-18T15:23:38.399Z,10.02
2023-01-18T15:26:06.444Z,9.93
2023-01-18T15:28:36.602Z,9.93
2023-01-18T15:31:14.182Z,9.89
2023-01-18T15:33:42.242Z,9.99
2023-01-18T15:36:10.102Z,10.05
2023-01-18T15:38:37.395Z,10.03
2023-01-18T15:41:12.433Z,10.10
2023-01-18T15:43:44.351Z,10.15
2023-01-18T15:46:14.314Z,10.05
2023-01-18T15:48:54.754Z,10.14
2023-01-18T15:51:22.983Z,10.01
2023-01-18T15:53:56.398Z,10.05
2023-01-18T15:56:26.719Z,10.04
2023-01-18T15:58:56.127Z,10.00
2023-01-18T16:01:34.099Z,9.95
2023-01-18T16:04:06.952Z,10.00
2023-01-18T16:06:37.117Z,9.95
2023-01-18T16:09:12.175Z,9.89
2023-01-18T16:11:53.323Z,9.93
2023-01-18T16:14:29.133Z,9.96
2023-01-18T16:17:18.303Z,10.08
2023-01-18T16:19:48.877Z,10.11
2023-01-18T16:22:26.391Z,10.09
2023-01-18T16:24:56.289Z,10.09
2023-01-18T16:27:28.629Z,10.15
2023-01-18T16:29:59.821Z,10.06
2023-01-18T16:32:29.458Z,10.07
2023-01-18T16:34:59.077Z,10.05
2023-01-18T16:37:26.162Z,9.98
2023-01-18T16:39:55.361Z,9.98
2023-01-18T16:42:29.594Z,9.99
2023-01-18T16:45:04.490Z,10.00
2023-01-18T16:47:31.378Z,10.02
2023-01-18T16:49:59.381Z,10.00
2023-01-18T16:52:27.364Z,9.95
2023-01-18T16:54:54.572Z,9.92
2023-01-18T16:57:23.763Z,9.89
2023-01-18T16:59:50.778Z,9.87
2023-01-18T17:02:17.797Z,9.92
2023-01-18T17:04:46.625Z,9.85
2023-01-18T17:07:14.259Z,9.81
2023-01-18T17:09:48.266Z,9.66
2023-01-18T17:12:16.163Z,9.64
2023-01-18T17:14:43.238Z,9.57
2023-01-18T17:17:11.179Z,9.54
2023-01-18T17:19:38.218Z,9.52
2023-01-18T17:22:06.563Z,9.46
2023-01-18T17:24:33.641Z,9.45
2023-01-18T17:27:01.467Z,9.46
2023-01-18T17:29:28.589Z,9.37
2023-01-18T17:31:55.647Z,9.34
2023-01-18T17:34:29.030Z,9.28
2023-01-18T17:36:59.628Z,9.22
2023-01-18T17:39:42.567Z,9.22
2023-01-18T17:42:22.384Z,9.23
2023-01-18T17:45:03.055Z,9.16
2023-01-18T17:47:31.592Z,9.16
2023-01-18T17:49:58.912Z,9.14
2023-01-18T17:52:27.375Z,9.17
2023-01-18T17:54:54.387Z,9.22
2023-01-18T17:57:21.288Z,9.23
2023-01-18T17:59:49.131Z,9.18
2023-01-18T18:02:16.160Z,9.15
2023-01-18T18:04:43.333Z,9.13
2023-01-18T18:07:10.185Z,9.09
2023-01-18T18:09:40.585Z,9.13
2023-01-18T18:12:08.641Z,9.10
2023-01-18T18:14:37.465Z,9.12
2023-01-18T18:17:05.899Z,9.18
2023-01-18T18:19:33.616Z,9.27
2023-01-18T18:22:01.002Z,9.33
2023-01-18T18:24:28.427Z,9.38
2023-01-18T18:26:55.694Z,9.38
2023-01-18T18:29:23.210Z,9.37
2023-01-18T18:31:50.286Z,9.37
2023-01-18T18:34:17.522Z,9.34
2023-01-18T18:36:44.884Z,9.34
2023-01-18T18:39:11.882Z,9.34
2023-01-18T18:41:38.789Z,9.28
2023-01-18T18:44:06.796Z,9.24
2023-01-18T18:46:33.833Z,9.22
2023-01-18T18:49:01.357Z,9.15
2023-01-18T18:51:28.361Z,9.14
2023-01-18T18:53:55.214Z,9.10
2023-01-18T18:56:22.135Z,8.98
2023-01-18T18:58:49.252Z,8.88
2023-01-18T19:01:27.752Z,8.81
2023-01-18T19:03:55.649Z,8.71
2023-01-18T19:06:23.794Z,8.57
2023-01-18T19:08:51.259Z,8.57
2023-01-18T19:11:18.651Z,8.50
2023-01-18T19:13:46.333Z,8.38
2023-01-18T19:16:14.562Z,8.31
2023-01-18T19:18:41.702Z,8.22
2023-01-18T19:21:08.763Z,8.20
2023-01-18T19:23:35.801Z,8.11
2023-01-18T19:26:03.908Z,8.06
2023-01-18T19:28:31.118Z,8.00
2023-01-18T19:31:05.856Z,7.93
2023-01-18T19:33:33.386Z,7.91
2023-01-18T19:36:09.010Z,7.86
2023-01-18T19:38:45.237Z,7.83
2023-01-18T19:41:12.987Z,7.76
2023-01-18T19:43:40.025Z,7.70
2023-01-18T19:46:11.347Z,7.66
2023-01-18T19:48:39.556Z,7.57
2023-01-18T19:51:16.673Z,7.55
2023-01-18T19:53:48.017Z,7.48
2023-01-18T19:56:14.826Z,7.46
2023-01-18T19:58:41.702Z,7.42
2023-01-18T20:01:23.078Z,7.47
2023-01-18T20:29:18.516Z,6.34
2023-01-18T20:31:49.824Z,6.44
2023-01-18T20:37:03.989Z,6.63
2023-01-18T20:39:31.817Z,6.72
2023-01-18T20:41:58.961Z,6.79
2023-01-18T20:44:26.371Z,6.86
2023-01-18T20:46:55.363Z,6.87
2023-01-18T20:49:27.311Z,6.90
2023-01-18T20:52:00.783Z,6.93
2023-01-18T20:54:28.113Z,6.96
2023-01-18T20:56:55.392Z,6.91
2023-01-18T20:59:22.920Z,6.93
2023-01-18T21:01:50.411Z,6.96
2023-01-18T21:04:18.000Z,6.93
2023-01-18T21:06:46.758Z,6.87
2023-01-18T21:09:13.895Z,6.85
2023-01-18T21:11:41.114Z,6.82
2023-01-18T21:14:08.577Z,6.79
2023-01-18T21:16:35.771Z,6.72
2023-01-18T21:19:03.015Z,6.64
2023-01-18T21:21:32.109Z,6.59
2023-01-18T21:24:00.335Z,6.56
2023-01-18T21:26:27.706Z,6.47
2023-01-18T21:28:55.544Z,6.34
2023-01-18T21:31:23.133Z,6.23
2023-01-18T21:33:50.376Z,6.13
2023-01-18T21:36:18.477Z,6.05
2023-01-18T21:38:45.763Z,5.93
2023-01-18T21:41:31.634Z,5.90
2023-01-18T21:44:17.555Z,5.80
2023-01-18T21:46:46.386Z,5.80
2023-01-18T21:49:43.308Z,5.78
2023-01-18T21:52:33.400Z,5.70
2023-01-18T21:55:00.780Z,5.65
2023-01-18T21:57:27.874Z,5.66
2023-01-18T21:59:54.881Z,5.57
2023-01-18T22:02:22.680Z,5.57
2023-01-18T22:05:03.748Z,5.50
2023-01-18T22:07:34.173Z,5.36
2023-01-18T22:10:06.861Z,5.21
2023-01-18T22:12:36.307Z,5.07
2023-01-18T22:15:07.386Z,4.91
2023-01-18T22:17:34.609Z,4.79
2023-01-18T22:20:02.203Z,4.62
2023-01-18T22:22:29.468Z,4.45
2023-01-18T22:24:57.165Z,4.32
2023-01-18T22:27:24.178Z,4.25
2023-01-18T22:29:51.422Z,4.25
2023-01-18T22:32:18.440Z,4.27
2023-01-18T22:34:45.556Z,4.38
2023-01-18T22:37:12.549Z,4.42
2023-01-18T22:39:39.663Z,4.40
2023-01-18T22:42:06.780Z,4.40
2023-01-18T22:44:33.923Z,4.44
2023-01-18T22:47:01.401Z,4.43
2023-01-18T22:49:28.398Z,4.36
2023-01-18T22:51:55.432Z,4.29
2023-01-18T22:54:23.171Z,4.19
2023-01-18T22:56:50.375Z,4.21
2023-01-18T22:59:17.591Z,4.21
2023-01-18T23:01:44.999Z,4.20
2023-01-18T23:04:12.424Z,4.18
2023-01-18T23:06:42.657Z,4.19
2023-01-18T23:09:10.543Z,4.16
2023-01-18T23:11:38.658Z,4.10
2023-01-18T23:14:24.472Z,4.07
2023-01-18T23:17:10.594Z,4.03
2023-01-18T23:19:37.770Z,3.99
2023-01-18T23:22:07.364Z,3.96
2023-01-18T23:24:36.810Z,3.94
2023-01-18T23:27:06.422Z,3.91
2023-01-18T23:29:33.968Z,3.89
2023-01-18T23:32:01.118Z,3.89
2023-01-18T23:34:28.390Z,3.83
2023-01-18T23:36:55.405Z,3.80
2023-01-18T23:39:41.353Z,3.79
2023-01-18T23:42:27.375Z,3.70
2023-01-18T23:45:13.157Z,3.63
2023-01-18T23:47:59.407Z,3.57
2023-01-18T23:50:45.370Z,3.49
2023-01-18T23:53:32.519Z,3.36
2023-01-18T23:56:00.245Z,3.23
2023-01-18T23:58:28.142Z,3.12
